Time;durP1;ratioP1;P1;durP2;ratioP2;P2;SDS_P1;SDS_P2;PMS_P1;PMS_P2;Temp;Humidity;BMP_temperature;BMP_pressure;BME280_temperature;BME280_humidity;BME280_pressure;Samples;Min_cycle;Max_cycle;Signal;HPM_P1;HPM_P2
2022/01/11 00:00:44;;;;;;;16.98;7.53;;;2.20;54.80;;;;;;5106837;27;34186;-75
2022/01/11 00:03:10;;;;;;;14.27;7.05;;;2.20;54.80;;;;;;5124653;27;34190;-75
2022/01/11 00:05:44;;;;;;;18.55;7.22;;;2.20;54.80;;;;;;5124823;27;34091;-75
2022/01/11 00:08:12;;;;;;;15.35;6.90;;;2.20;54.80;;;;;;5106546;27;34168;-75
2022/01/11 00:10:48;;;;;;;14.93;6.85;;;2.20;54.90;;;;;;5106799;27;34161;-75
2022/01/11 00:13:15;;;;;;;15.98;7.18;;;2.20;54.90;;;;;;5124450;27;35243;-75
2022/01/11 00:15:41;;;;;;;16.85;7.53;;;2.20;55.00;;;;;;5089565;27;34351;-75
2022/01/11 00:18:09;;;;;;;13.65;7.28;;;2.20;54.90;;;;;;5107076;27;34771;-75
2022/01/11 00:20:37;;;;;;;13.20;6.90;;;2.20;55.00;;;;;;5106817;27;34275;-75
2022/01/11 00:25:53;;;;;;;13.68;6.00;;;2.20;54.90;;;;;;5109095;27;34047;-75
2022/01/11 00:28:21;;;;;;;13.02;6.45;;;2.20;54.90;;;;;;5124180;27;34281;-75
2022/01/11 00:30:48;;;;;;;15.20;6.40;;;2.20;55.00;;;;;;5088960;27;34137;-74
2022/01/11 00:33:20;;;;;;;13.23;6.85;;;2.20;54.90;;;;;;5124044;27;35353;-74
2022/01/11 00:35:58;;;;;;;13.90;6.47;;;2.20;54.90;;;;;;5106367;27;34333;-75
2022/01/11 00:38:27;;;;;;;16.83;6.63;;;2.20;55.00;;;;;;5106319;27;34371;-75
2022/01/11 00:40:56;;;;;;;14.68;6.72;;;2.20;54.90;;;;;;5123972;27;34417;-75
2022/01/11 00:43:25;;;;;;;14.48;6.60;;;2.20;54.90;;;;;;5105504;27;36887;-75
2022/01/11 00:45:52;;;;;;;15.32;6.78;;;2.20;54.70;;;;;;5105567;27;34176;-75
2022/01/11 00:48:19;;;;;;;14.70;6.95;;;2.20;54.60;;;;;;5106154;27;34250;-75
2022/01/11 00:50:46;;;;;;;16.88;7.65;;;2.20;54.60;;;;;;5106038;27;34210;-75
2022/01/11 00:53:12;;;;;;;12.65;6.13;;;2.20;54.80;;;;;;5106367;27;35942;-75
2022/01/11 00:55:39;;;;;;;13.10;6.38;;;2.20;54.80;;;;;;5124876;27;34341;-75
2022/01/11 00:58:06;;;;;;;13.77;6.20;;;2.20;54.80;;;;;;5089047;27;34242;-74
2022/01/11 01:00:34;;;;;;;11.95;6.15;;;2.20;54.80;;;;;;5124195;27;34162;-75
2022/01/11 01:03:00;;;;;;;18.40;6.75;;;2.20;54.90;;;;;;5105802;27;35820;-74
2022/01/11 01:05:27;;;;;;;13.40;5.72;;;2.20;54.80;;;;;;5123390;27;34065;-75
2022/01/11 01:07:53;;;;;;;16.73;6.18;;;2.20;55.00;;;;;;5105921;27;34076;-74
2022/01/11 01:10:26;;;;;;;13.38;5.93;;;2.20;54.80;;;;;;5088733;27;34073;-74
2022/01/11 01:12:54;;;;;;;17.08;6.65;;;2.10;54.80;;;;;;5104971;27;35993;-75
2022/01/11 01:15:21;;;;;;;15.40;6.88;;;2.10;54.70;;;;;;5123946;27;34155;-75
2022/01/11 01:17:47;;;;;;;15.77;7.35;;;2.10;54.80;;;;;;5105405;27;34113;-75
2022/01/11 01:20:13;;;;;;;16.80;6.75;;;2.10;55.00;;;;;;5105555;27;34420;-75
2022/01/11 01:22:40;;;;;;;11.07;5.93;;;2.10;55.00;;;;;;5105947;27;34443;-75
2022/01/11 01:25:06;;;;;;;16.17;7.07;;;2.10;55.00;;;;;;5105557;27;34289;-75
2022/01/11 01:27:33;;;;;;;17.75;6.63;;;2.10;55.00;;;;;;5123649;27;34411;-75
2022/01/11 01:29:59;;;;;;;12.63;6.13;;;2.00;54.70;;;;;;5090265;28;34200;-74
2022/01/11 01:32:25;;;;;;;15.35;6.82;;;2.00;55.00;;;;;;5081376;28;35714;-75
2022/01/11 01:34:52;;;;;;;13.85;6.47;;;2.00;54.90;;;;;;5098229;27;34274;-74
2022/01/11 01:37:18;;;;;;;12.68;5.95;;;2.00;54.80;;;;;;5065121;28;34369;-74
2022/01/11 01:39:44;;;;;;;13.82;6.63;;;2.00;54.90;;;;;;5082894;28;34196;-74
2022/01/11 01:42:12;;;;;;;15.48;6.03;;;2.00;55.00;;;;;;5081761;28;36643;-75
2022/01/11 01:44:40;;;;;;;15.25;6.55;;;2.00;54.90;;;;;;5081532;28;34286;-75
2022/01/11 01:47:08;;;;;;;14.10;6.80;;;2.00;54.90;;;;;;5082464;28;34018;-75
2022/01/11 01:49:36;;;;;;;13.75;5.93;;;2.00;55.00;;;;;;5081926;28;34249;-75
2022/01/11 01:52:03;;;;;;;12.07;6.60;;;2.00;55.00;;;;;;5081862;28;35461;-75
2022/01/11 01:54:29;;;;;;;17.27;6.95;;;2.10;55.00;;;;;;5081738;28;34140;-75
2022/01/11 01:56:55;;;;;;;15.65;6.55;;;2.10;55.00;;;;;;5064307;28;34180;-75
2022/01/11 01:59:22;;;;;;;13.73;6.07;;;2.10;54.90;;;;;;5085662;28;34341;-75
2022/01/11 02:01:49;;;;;;;12.18;5.63;;;2.00;54.80;;;;;;5086499;28;34419;-75
2022/01/11 02:04:17;;;;;;;10.80;5.53;;;2.00;54.90;;;;;;5084980;28;34391;-75
2022/01/11 02:06:44;;;;;;;13.15;5.78;;;2.00;54.80;;;;;;5084794;28;34344;-75
2022/01/11 02:09:12;;;;;;;13.30;5.70;;;1.90;54.90;;;;;;5086345;28;34240;-75
2022/01/11 02:11:39;;;;;;;13.13;5.65;;;1.90;54.90;;;;;;5085857;28;34430;-75
2022/01/11 02:14:05;;;;;;;12.00;5.82;;;1.90;54.80;;;;;;5108735;27;34353;-75
2022/01/11 02:16:31;;;;;;;8.25;5.05;;;1.90;54.80;;;;;;5108716;27;34116;-75
2022/01/11 02:18:57;;;;;;;11.95;5.63;;;1.80;54.90;;;;;;5108283;27;34042;-75
2022/01/11 02:21:23;;;;;;;11.85;6.22;;;1.80;54.90;;;;;;5108542;27;36323;-75
2022/01/11 02:23:50;;;;;;;12.30;5.90;;;1.80;54.80;;;;;;5108617;27;34281;-75
2022/01/11 02:26:17;;;;;;;12.27;5.85;;;1.90;54.90;;;;;;5126596;27;34200;-75
2022/01/11 02:28:43;;;;;;;11.85;5.13;;;1.90;54.70;;;;;;5126829;27;34139;-75
2022/01/11 02:31:12;;;;;;;14.18;5.53;;;1.90;54.70;;;;;;5107988;27;35630;-75
2022/01/11 02:33:45;;;;;;;12.63;5.38;;;1.90;54.80;;;;;;5108184;27;34209;-75
2022/01/11 02:36:18;;;;;;;15.70;5.80;;;1.90;54.70;;;;;;5108588;27;34425;-75
2022/01/11 02:38:46;;;;;;;13.38;5.57;;;1.90;54.60;;;;;;5091609;27;34152;-75
2022/01/11 02:41:12;;;;;;;10.85;5.40;;;1.80;54.40;;;;;;5108353;27;34331;-75
2022/01/11 02:43:43;;;;;;;10.27;5.03;;;1.80;54.30;;;;;;5108235;27;34119;-75
2022/01/11 02:46:09;;;;;;;11.13;5.18;;;1.80;54.40;;;;;;5091489;27;34214;-75
2022/01/11 02:48:35;;;;;;;10.00;5.18;;;1.70;54.50;;;;;;5126272;27;34516;-75
2022/01/11 02:51:03;;;;;;;9.27;4.85;;;1.70;54.70;;;;;;5126464;27;34315;-75
2022/01/11 02:53:29;;;;;;;8.50;4.32;;;1.70;54.60;;;;;;5107898;27;34246;-75
2022/01/11 02:55:55;;;;;;;10.43;4.82;;;1.70;54.70;;;;;;5107650;27;34269;-75
2022/01/11 02:58:21;;;;;;;11.65;5.28;;;1.70;54.70;;;;;;5108238;27;34447;-75
2022/01/11 03:00:47;;;;;;;9.40;4.80;;;1.70;54.60;;;;;;5107625;27;35285;-75
2022/01/11 03:03:17;;;;;;;9.13;4.30;;;1.70;54.80;;;;;;5107308;27;34155;-75
2022/01/11 03:05:46;;;;;;;11.60;4.90;;;1.60;54.60;;;;;;5108890;27;34163;-75
2022/01/11 03:08:14;;;;;;;9.05;4.32;;;1.70;54.80;;;;;;5090411;27;34300;-76
2022/01/11 03:10:40;;;;;;;10.23;4.80;;;1.60;54.70;;;;;;5107356;27;36540;-76
2022/01/11 03:13:08;;;;;;;7.88;4.03;;;1.60;54.40;;;;;;5107535;27;34344;-75
2022/01/11 03:15:34;;;;;;;11.38;4.93;;;1.60;54.40;;;;;;5108369;27;34284;-75
2022/01/11 03:18:01;;;;;;;8.98;4.95;;;1.60;54.50;;;;;;5126164;27;34154;-75
2022/01/11 03:20:27;;;;;;;9.10;4.63;;;1.60;54.60;;;;;;5090154;27;35662;-76
2022/01/11 03:22:53;;;;;;;9.85;5.00;;;1.60;54.70;;;;;;5107859;27;34193;-76
2022/01/11 03:25:19;;;;;;;13.77;5.78;;;1.60;54.60;;;;;;5125925;27;34261;-76
2022/01/11 03:27:45;;;;;;;10.65;4.93;;;1.60;54.50;;;;;;5107343;27;34473;-76
2022/01/11 03:30:12;;;;;;;11.40;5.50;;;1.60;54.60;;;;;;5089835;27;35666;-76
2022/01/11 03:32:38;;;;;;;12.00;5.43;;;1.60;54.50;;;;;;5090294;27;34258;-76
2022/01/11 03:35:06;;;;;;;9.90;4.90;;;1.60;54.50;;;;;;5107224;27;34246;-76
2022/01/11 03:37:32;;;;;;;13.80;6.05;;;1.50;54.50;;;;;;5125854;27;34421;-76
2022/01/11 03:39:58;;;;;;;8.48;4.68;;;1.50;54.50;;;;;;5090095;27;35997;-76
2022/01/11 03:42:24;;;;;;;7.82;4.80;;;1.50;54.60;;;;;;5107137;27;34493;-76
2022/01/11 03:44:50;;;;;;;10.68;5.18;;;1.50;54.60;;;;;;5107153;27;34199;-76
2022/01/11 03:47:17;;;;;;;11.23;5.32;;;1.50;54.60;;;;;;5089943;27;34399;-76
2022/01/11 03:49:43;;;;;;;10.63;5.25;;;1.50;54.50;;;;;;5107397;27;34240;-76
2022/01/11 03:52:09;;;;;;;9.73;5.30;;;1.50;54.60;;;;;;5107099;27;34334;-76
2022/01/11 03:55:00;;;;;;;10.18;5.18;;;1.50;54.50;;;;;;5089715;27;34362;-76
2022/01/11 03:57:23;;;;;;;11.27;4.65;;;1.50;54.50;;;;;;5109843;27;34284;-76
2022/01/11 03:59:49;;;;;;;8.77;4.80;;;1.50;54.40;;;;;;5107177;27;35617;-76
2022/01/11 04:02:15;;;;;;;12.02;5.25;;;1.50;54.40;;;;;;5089935;27;34192;-75
2022/01/11 04:04:41;;;;;;;8.43;4.40;;;1.50;54.40;;;;;;5106887;27;34169;-76
2022/01/11 04:07:07;;;;;;;9.25;4.95;;;1.50;54.60;;;;;;5106942;27;34187;-76
2022/01/11 04:09:34;;;;;;;9.30;4.35;;;1.50;54.50;;;;;;5106647;27;35541;-76
2022/01/11 04:12:00;;;;;;;8.40;4.22;;;1.50;54.50;;;;;;5106773;27;34219;-76
2022/01/11 04:14:26;;;;;;;8.65;4.40;;;1.50;54.30;;;;;;5124256;27;34294;-76
2022/01/11 04:16:53;;;;;;;7.80;4.28;;;1.50;54.40;;;;;;5106662;27;34583;-76
2022/01/11 04:19:20;;;;;;;10.57;4.70;;;1.50;54.30;;;;;;5106365;27;36720;-75
2022/01/11 04:21:46;;;;;;;8.23;4.20;;;1.50;54.30;;;;;;5105613;27;34388;-76
2022/01/11 04:24:13;;;;;;;8.80;3.97;;;1.40;54.30;;;;;;5106457;27;34436;-76
2022/01/11 04:26:39;;;;;;;9.88;4.03;;;1.40;54.40;;;;;;5107069;27;34115;-76
2022/01/11 04:29:06;;;;;;;10.13;5.18;;;1.40;54.90;;;;;;5124328;27;34866;-75
2022/01/11 04:31:33;;;;;;;8.85;4.22;;;1.40;54.20;;;;;;5105902;27;34211;-75
2022/01/11 04:33:59;;;;;;;9.82;4.38;;;1.40;54.30;;;;;;5106753;27;34295;-76
2022/01/11 04:36:25;;;;;;;9.73;4.55;;;1.40;54.40;;;;;;5124841;27;34274;-76
2022/01/11 04:38:51;;;;;;;10.93;4.32;;;1.40;54.40;;;;;;5124177;27;35313;-76
2022/01/11 04:41:17;;;;;;;9.32;4.45;;;1.40;54.70;;;;;;5105388;27;34336;-76
2022/01/11 04:43:44;;;;;;;8.75;4.93;;;1.40;54.50;;;;;;5106360;27;34573;-76
2022/01/11 04:46:10;;;;;;;11.15;4.60;;;1.40;54.30;;;;;;5106549;27;34615;-75
2022/01/11 04:48:36;;;;;;;9.98;4.72;;;1.30;54.30;;;;;;5105781;27;35729;-76
2022/01/11 04:51:04;;;;;;;10.60;5.00;;;1.30;54.40;;;;;;5123894;27;34069;-76
2022/01/11 04:53:30;;;;;;;8.93;4.80;;;1.40;54.40;;;;;;5105774;27;34254;-76
2022/01/11 04:55:57;;;;;;;8.35;4.63;;;1.40;54.40;;;;;;5124047;27;34344;-76
2022/01/11 04:58:23;;;;;;;8.95;4.80;;;1.30;54.30;;;;;;5105121;27;35812;-75
2022/01/11 05:00:50;;;;;;;10.65;5.07;;;1.30;54.50;;;;;;5106155;27;34226;-75
2022/01/11 05:03:18;;;;;;;9.63;4.93;;;1.30;54.60;;;;;;5105650;27;34218;-75
2022/01/11 05:05:46;;;;;;;12.23;5.28;;;1.30;54.70;;;;;;5106078;27;34713;-75
2022/01/11 05:08:13;;;;;;;12.02;4.78;;;1.30;54.70;;;;;;5088343;27;35540;-75
2022/01/11 05:10:42;;;;;;;11.55;4.93;;;1.30;54.80;;;;;;5105666;27;34283;-76
2022/01/11 05:13:18;;;;;;;9.43;4.53;;;1.30;54.50;;;;;;5123430;27;34241;-76
2022/01/11 05:15:44;;;;;;;9.88;4.95;;;1.30;54.60;;;;;;5106264;27;34347;-76
2022/01/11 05:18:11;;;;;;;10.85;4.88;;;1.30;54.80;;;;;;5089032;27;36434;-76
2022/01/11 05:20:39;;;;;;;9.52;4.80;;;1.30;54.70;;;;;;5105516;27;34179;-76
2022/01/11 05:23:06;;;;;;;9.98;4.38;;;1.30;54.70;;;;;;5088453;27;34302;-76
2022/01/11 05:25:32;;;;;;;8.73;4.28;;;1.30;54.50;;;;;;5104803;27;34255;-76
2022/01/11 05:27:59;;;;;;;10.25;4.82;;;1.30;54.40;;;;;;5105192;27;35643;-76
2022/01/11 05:30:26;;;;;;;9.65;4.25;;;1.30;54.50;;;;;;5105125;27;34359;-76
2022/01/11 05:32:52;;;;;;;8.02;4.28;;;1.40;54.50;;;;;;5105450;27;34460;-76
2022/01/11 05:35:20;;;;;;;8.00;3.92;;;1.30;54.40;;;;;;5104925;27;34559;-76
2022/01/11 05:37:47;;;;;;;9.52;4.47;;;1.30;54.40;;;;;;5105062;27;35919;-76
2022/01/11 05:40:15;;;;;;;9.35;4.22;;;1.30;54.20;;;;;;5123344;27;34054;-76
2022/01/11 05:42:43;;;;;;;8.18;4.10;;;1.30;54.00;;;;;;5105792;27;34249;-76
2022/01/11 05:45:10;;;;;;;10.45;4.55;;;1.30;54.10;;;;;;5105660;27;34113;-76
2022/01/11 05:47:37;;;;;;;8.70;4.57;;;1.20;54.00;;;;;;5105065;27;35884;-76
2022/01/11 05:50:05;;;;;;;6.47;3.78;;;1.20;54.10;;;;;;5105117;27;34135;-76
2022/01/11 05:52:31;;;;;;;6.75;4.15;;;1.20;54.20;;;;;;5087479;27;34159;-76
2022/01/11 05:54:57;;;;;;;8.18;4.13;;;1.20;54.30;;;;;;5104903;27;34506;-76
2022/01/11 05:57:23;;;;;;;8.68;4.75;;;1.20;54.40;;;;;;5104202;27;35832;-76
2022/01/11 05:59:49;;;;;;;5.75;3.35;;;1.10;54.30;;;;;;5088255;27;34337;-76
2022/01/11 06:02:16;;;;;;;8.00;4.20;;;1.10;54.30;;;;;;5104650;27;34253;-76
2022/01/11 06:04:41;;;;;;;7.35;4.00;;;1.10;54.20;;;;;;5105247;27;34381;-76
2022/01/11 06:07:07;;;;;;;5.65;3.50;;;1.10;54.50;;;;;;5104394;27;35534;-76
2022/01/11 06:09:33;;;;;;;5.93;3.88;;;1.10;54.40;;;;;;5087097;27;34096;-76
2022/01/11 06:12:00;;;;;;;6.40;3.65;;;1.10;54.20;;;;;;5088145;27;34219;-76
2022/01/11 06:14:26;;;;;;;5.05;3.38;;;1.00;54.00;;;;;;5105063;27;34214;-76
2022/01/11 06:16:52;;;;;;;8.60;3.63;;;1.00;53.90;;;;;;5104775;27;34566;-76
2022/01/11 06:19:18;;;;;;;7.50;3.55;;;1.00;53.70;;;;;;5104487;27;34119;-76
2022/01/11 06:21:44;;;;;;;5.88;3.03;;;1.00;53.90;;;;;;5122965;27;34230;-76
2022/01/11 06:24:10;;;;;;;8.85;3.15;;;0.90;53.80;;;;;;5122466;27;34549;-76
2022/01/11 06:26:36;;;;;;;6.80;3.80;;;0.90;53.90;;;;;;5104445;27;35595;-76
2022/01/11 06:29:03;;;;;;;4.78;3.00;;;0.90;53.80;;;;;;5104481;27;34160;-76
2022/01/11 06:31:30;;;;;;;5.75;3.58;;;0.90;54.00;;;;;;5104865;27;34193;-76
2022/01/11 06:33:56;;;;;;;8.82;3.97;;;0.80;53.90;;;;;;5104622;27;34309;-76
2022/01/11 06:36:22;;;;;;;8.02;3.95;;;0.80;54.00;;;;;;5104016;27;35541;-76
2022/01/11 06:38:49;;;;;;;7.72;3.50;;;0.80;54.10;;;;;;5098423;28;34413;-76
2022/01/11 06:41:16;;;;;;;6.10;3.13;;;0.80;54.00;;;;;;5085478;28;34159;-76
2022/01/11 06:43:43;;;;;;;6.00;3.70;;;0.80;54.20;;;;;;5086300;28;34150;-76
2022/01/11 06:46:09;;;;;;;5.78;3.25;;;0.80;54.30;;;;;;5087439;28;36355;-76
2022/01/11 06:48:35;;;;;;;9.52;3.33;;;0.80;55.00;;;;;;5070738;28;34212;-76
2022/01/11 06:51:02;;;;;;;6.95;3.78;;;0.80;54.10;;;;;;5087561;28;34514;-76
2022/01/11 06:53:31;;;;;;;7.40;3.63;;;0.80;54.20;;;;;;5087113;28;34296;-76
2022/01/11 06:55:57;;;;;;;6.20;3.42;;;0.80;54.10;;;;;;5087336;28;36688;-76
2022/01/11 06:58:23;;;;;;;8.10;3.92;;;0.80;54.00;;;;;;5087327;28;34165;-76
2022/01/11 07:00:49;;;;;;;6.40;3.70;;;0.80;53.90;;;;;;5087531;28;34235;-76
2022/01/11 07:03:16;;;;;;;5.63;3.22;;;0.70;53.80;;;;;;5105511;28;34211;-76
2022/01/11 07:05:42;;;;;;;6.10;3.13;;;0.70;54.10;;;;;;5086924;28;36534;-76
2022/01/11 07:08:09;;;;;;;6.75;3.55;;;0.70;53.90;;;;;;5105522;27;34438;-76
2022/01/11 07:10:36;;;;;;;7.90;3.40;;;0.60;53.80;;;;;;5105260;28;34138;-76
2022/01/11 07:13:02;;;;;;;5.78;3.25;;;0.60;54.00;;;;;;5070193;28;34449;-76
2022/01/11 07:15:29;;;;;;;5.43;3.25;;;0.60;53.90;;;;;;5086519;28;35610;-76
2022/01/11 07:17:55;;;;;;;5.85;3.38;;;0.60;53.70;;;;;;5087090;28;34386;-76
2022/01/11 07:20:22;;;;;;;4.63;2.95;;;0.50;53.70;;;;;;5086775;28;34302;-76
2022/01/11 07:25:33;;;;;;;5.82;3.17;;;0.50;53.90;;;;;;5105120;28;34241;-76
2022/01/11 07:28:00;;;;;;;5.18;3.45;;;0.50;53.90;;;;;;5069948;28;34184;-76
2022/01/11 07:30:26;;;;;;;9.20;4.07;;;0.40;53.90;;;;;;5104708;27;34104;-76
2022/01/11 07:32:52;;;;;;;8.07;3.72;;;0.50;53.90;;;;;;5069236;28;34228;-76
2022/01/11 07:35:19;;;;;;;6.53;3.90;;;0.40;53.70;;;;;;5085968;28;35846;-76
2022/01/11 07:37:45;;;;;;;7.25;3.80;;;0.40;53.90;;;;;;5070458;28;34492;-76
2022/01/11 07:40:12;;;;;;;6.60;3.42;;;0.40;54.00;;;;;;5087159;28;34360;-76
2022/01/11 07:42:38;;;;;;;4.18;2.95;;;0.40;53.90;;;;;;5086513;28;34346;-76
2022/01/11 07:45:04;;;;;;;4.90;3.15;;;0.40;54.10;;;;;;5104448;28;34342;-76
2022/01/11 07:47:30;;;;;;;6.88;3.78;;;0.40;54.10;;;;;;5086897;28;34022;-76
2022/01/11 07:49:57;;;;;;;5.93;3.80;;;0.40;53.80;;;;;;5070222;28;34236;-76
2022/01/11 07:52:23;;;;;;;4.88;3.53;;;0.40;53.90;;;;;;5069570;28;34191;-76
2022/01/11 07:54:49;;;;;;;6.50;3.75;;;0.40;53.90;;;;;;5069481;28;35525;-76
2022/01/11 07:57:15;;;;;;;5.10;3.28;;;0.40;53.70;;;;;;5086318;28;34480;-76
2022/01/11 07:59:42;;;;;;;5.60;3.40;;;0.40;53.60;;;;;;5069874;28;34385;-76
2022/01/11 08:02:08;;;;;;;6.55;3.47;;;0.30;53.70;;;;;;5104367;28;34264;-76
2022/01/11 08:04:34;;;;;;;4.75;3.25;;;0.30;53.70;;;;;;5104445;28;35023;-76
2022/01/11 08:07:02;;;;;;;5.35;3.35;;;0.30;53.90;;;;;;5105120;28;34090;-76
2022/01/11 08:09:28;;;;;;;5.53;3.30;;;0.30;53.80;;;;;;5069875;28;34217;-76
2022/01/11 08:11:56;;;;;;;6.03;3.42;;;0.30;53.80;;;;;;5086720;28;34119;-76
2022/01/11 08:14:23;;;;;;;4.05;2.85;;;0.30;53.90;;;;;;5086127;28;36401;-76
2022/01/11 08:16:50;;;;;;;4.97;3.60;;;0.30;53.60;;;;;;5105026;28;34126;-76
2022/01/11 08:19:16;;;;;;;5.63;3.40;;;0.30;54.70;;;;;;5069437;28;34207;-76
2022/01/11 08:21:42;;;;;;;6.78;3.83;;;0.30;53.90;;;;;;5105127;28;34072;-76
2022/01/11 08:24:08;;;;;;;6.05;3.90;;;0.40;54.00;;;;;;5085945;28;35571;-76
2022/01/11 08:26:35;;;;;;;6.60;3.35;;;0.40;53.80;;;;;;5104355;28;34256;-76
2022/01/11 08:29:01;;;;;;;4.80;3.47;;;0.40;53.50;;;;;;5104989;28;34395;-76
2022/01/11 08:31:27;;;;;;;5.53;3.28;;;0.40;53.30;;;;;;5104307;28;34683;-76
2022/01/11 08:33:53;;;;;;;6.25;3.72;;;0.40;53.50;;;;;;5086294;28;35978;-76
2022/01/11 08:36:19;;;;;;;6.20;3.20;;;0.50;53.60;;;;;;5086537;28;34191;-75
2022/01/11 08:38:45;;;;;;;6.93;3.65;;;0.50;53.60;;;;;;5106088;28;34189;-76
2022/01/11 08:41:11;;;;;;;7.95;4.00;;;0.50;53.30;;;;;;5087896;28;34555;-76
2022/01/11 08:43:37;;;;;;;5.35;3.30;;;0.50;53.30;;;;;;5105146;28;34173;-76
2022/01/11 08:46:04;;;;;;;4.95;2.88;;;0.60;53.00;;;;;;5104276;28;34314;-76
2022/01/11 08:48:31;;;;;;;5.72;3.22;;;0.60;52.90;;;;;;5104676;28;34257;-75
2022/01/11 08:50:57;;;;;;;5.07;3.30;;;0.60;53.00;;;;;;5120455;27;34498;-75
2022/01/11 08:53:29;;;;;;;7.82;4.07;;;0.60;52.90;;;;;;5103371;28;35636;-75
2022/01/11 08:55:56;;;;;;;9.20;3.83;;;0.60;53.00;;;;;;5086411;28;34372;-76
2022/01/11 08:58:22;;;;;;;5.45;3.28;;;0.60;53.00;;;;;;5068784;28;34285;-76
2022/01/11 09:00:50;;;;;;;5.40;3.13;;;0.60;53.10;;;;;;5104171;28;34404;-76
2022/01/11 09:03:16;;;;;;;5.35;3.55;;;0.60;53.20;;;;;;5068827;28;35701;-75
2022/01/11 09:05:42;;;;;;;5.38;3.42;;;0.60;53.00;;;;;;5085998;28;33995;-75
2022/01/11 09:08:10;;;;;;;6.72;3.38;;;0.50;53.00;;;;;;5085459;28;34332;-76
2022/01/11 09:10:36;;;;;;;4.97;3.20;;;0.60;53.40;;;;;;5086281;28;34258;-76
2022/01/11 09:13:02;;;;;;;7.32;3.97;;;0.60;53.20;;;;;;5103670;28;34730;-76
2022/01/11 09:15:28;;;;;;;6.30;3.35;;;0.70;53.20;;;;;;5085677;28;34203;-76
2022/01/11 09:17:55;;;;;;;5.28;3.25;;;0.70;53.10;;;;;;5085789;28;34323;-76
2022/01/11 09:20:21;;;;;;;5.55;3.40;;;0.70;52.80;;;;;;5085390;28;34242;-76
2022/01/11 09:22:47;;;;;;;8.15;3.58;;;0.70;52.80;;;;;;5085221;28;36067;-76
2022/01/11 09:25:15;;;;;;;4.15;3.00;;;0.80;53.00;;;;;;5085376;28;34292;-76
2022/01/11 09:27:41;;;;;;;5.45;3.35;;;0.90;53.50;;;;;;5086312;28;34271;-76
2022/01/11 09:30:10;;;;;;;6.70;3.85;;;0.90;53.10;;;;;;5085429;28;34270;-75
2022/01/11 09:32:37;;;;;;;5.63;3.42;;;1.00;52.80;;;;;;5085934;28;34952;-76
2022/01/11 09:35:06;;;;;;;5.88;3.55;;;1.00;52.90;;;;;;5068537;28;34246;-76
2022/01/11 09:37:32;;;;;;;5.25;3.33;;;1.10;53.00;;;;;;5068980;28;34268;-76
2022/01/11 09:39:58;;;;;;;5.93;3.50;;;1.20;52.50;;;;;;5103855;28;34174;-76
2022/01/11 09:42:26;;;;;;;6.95;3.53;;;1.30;52.30;;;;;;5102578;28;34423;-76
2022/01/11 09:44:53;;;;;;;6.30;3.92;;;1.30;52.30;;;;;;5103602;28;34224;-76
2022/01/11 09:47:19;;;;;;;8.25;3.95;;;1.30;52.50;;;;;;5068717;28;34110;-76
2022/01/11 09:49:45;;;;;;;6.82;4.20;;;1.40;52.70;;;;;;5068477;28;34614;-75
2022/01/11 09:52:12;;;;;;;5.07;3.22;;;1.40;52.40;;;;;;5103362;28;34358;-76
2022/01/11 09:54:40;;;;;;;6.93;3.80;;;1.50;52.50;;;;;;5084634;28;34466;-76
2022/01/11 09:57:07;;;;;;;5.90;3.60;;;1.50;52.40;;;;;;5085514;28;34250;-76
2022/01/11 09:59:33;;;;;;;6.43;3.55;;;1.50;52.00;;;;;;5085138;28;34251;-76
2022/01/11 10:02:00;;;;;;;5.65;3.63;;;1.50;52.00;;;;;;5085034;28;35856;-76
2022/01/11 10:04:32;;;;;;;6.07;3.25;;;1.60;52.00;;;;;;5084761;28;34368;-76
2022/01/11 10:07:02;;;;;;;5.90;3.50;;;1.60;52.00;;;;;;5084539;28;34937;-76
2022/01/11 10:09:30;;;;;;;5.30;3.20;;;1.60;52.20;;;;;;5084906;28;34219;-76
2022/01/11 10:11:58;;;;;;;5.20;3.25;;;1.70;52.10;;;;;;5085001;28;36012;-76
2022/01/11 10:14:35;;;;;;;6.60;3.92;;;1.70;52.00;;;;;;5102418;28;34369;-76
2022/01/11 10:17:15;;;;;;;6.70;3.50;;;1.80;52.10;;;;;;5068312;28;34257;-76
2022/01/11 10:19:43;;;;;;;5.00;3.40;;;1.80;52.10;;;;;;5087766;28;34171;-76
2022/01/11 10:22:15;;;;;;;5.85;3.80;;;1.80;52.40;;;;;;5089026;28;34423;-76
2022/01/11 10:24:46;;;;;;;7.43;3.33;;;1.90;51.90;;;;;;5089620;28;34246;-76
2022/01/11 10:27:18;;;;;;;6.60;3.47;;;1.90;52.20;;;;;;5123268;27;34284;-76
2022/01/11 10:29:50;;;;;;;5.90;3.38;;;2.00;51.80;;;;;;5072353;28;34157;-76
2022/01/11 10:32:31;;;;;;;5.43;3.35;;;2.00;51.70;;;;;;5089916;28;35357;-76
2022/01/11 10:35:01;;;;;;;7.22;3.35;;;2.10;52.30;;;;;;5088645;28;34248;-77
2022/01/11 10:37:32;;;;;;;5.85;3.92;;;2.10;51.80;;;;;;5088813;27;34129;-76
2022/01/11 10:40:05;;;;;;;6.78;3.20;;;2.10;51.60;;;;;;5072446;28;34161;-77
2022/01/11 10:42:33;;;;;;;6.97;3.50;;;2.10;52.10;;;;;;5071761;28;35938;-77
2022/01/11 10:45:03;;;;;;;6.55;3.42;;;2.20;51.90;;;;;;5107103;28;34110;-77
2022/01/11 10:47:34;;;;;;;5.45;3.55;;;2.20;51.80;;;;;;5071784;28;34138;-77
2022/01/11 10:50:06;;;;;;;6.38;4.00;;;2.30;51.70;;;;;;5106380;28;34414;-77
2022/01/11 10:52:34;;;;;;;7.40;3.90;;;2.20;51.40;;;;;;5087283;28;36900;-77
2022/01/11 10:55:03;;;;;;;6.00;4.05;;;2.30;51.90;;;;;;5088173;28;34353;-77
2022/01/11 10:57:32;;;;;;;6.93;4.25;;;2.40;51.90;;;;;;5070359;28;34263;-76
2022/01/11 11:00:15;;;;;;;6.05;3.75;;;2.40;51.80;;;;;;5088688;28;34510;-76
2022/01/11 11:02:43;;;;;;;7.88;4.53;;;2.40;51.50;;;;;;5070257;28;35525;-76
2022/01/11 11:05:13;;;;;;;5.10;3.88;;;2.40;52.10;;;;;;5087285;28;34469;-77
2022/01/11 11:07:39;;;;;;;8.25;4.75;;;2.40;52.10;;;;;;5069885;28;34193;-76
2022/01/11 11:10:06;;;;;;;5.63;3.55;;;2.40;52.20;;;;;;5088204;28;34428;-77
2022/01/11 11:12:32;;;;;;;7.80;4.20;;;2.40;52.00;;;;;;5071242;28;35669;-77
2022/01/11 11:14:59;;;;;;;8.90;4.35;;;2.50;52.10;;;;;;5106593;28;34146;-77
2022/01/11 11:17:28;;;;;;;6.78;4.05;;;2.50;52.00;;;;;;5087320;28;34192;-77
2022/01/11 11:20:05;;;;;;;5.32;4.00;;;2.50;52.10;;;;;;5070243;28;34169;-77
2022/01/11 11:22:32;;;;;;;6.95;3.97;;;2.50;52.00;;;;;;5086510;28;35827;-77
2022/01/11 11:24:58;;;;;;;7.97;3.88;;;2.40;52.10;;;;;;5105217;28;34178;-76
2022/01/11 11:27:26;;;;;;;8.52;4.53;;;2.40;52.10;;;;;;5087136;28;34247;-77
2022/01/11 11:29:52;;;;;;;6.05;4.20;;;2.50;52.40;;;;;;5069538;28;34106;-76
2022/01/11 11:32:21;;;;;;;6.57;3.95;;;2.50;52.60;;;;;;5069227;28;35729;-76
2022/01/11 11:34:49;;;;;;;9.18;4.32;;;2.60;52.70;;;;;;5070232;28;34449;-76
2022/01/11 11:37:27;;;;;;;6.78;4.38;;;2.70;52.10;;;;;;5070559;28;34343;-77
2022/01/11 11:39:58;;;;;;;6.13;3.90;;;2.70;52.00;;;;;;5070299;28;34306;-76
2022/01/11 11:42:26;;;;;;;6.38;4.05;;;2.70;52.20;;;;;;5069549;28;37211;-76
2022/01/11 11:44:52;;;;;;;6.93;4.30;;;2.70;52.20;;;;;;5070118;28;34339;-76
2022/01/11 11:47:35;;;;;;;6.75;4.18;;;2.70;52.70;;;;;;5086298;28;34211;-76
2022/01/11 11:50:04;;;;;;;7.30;4.40;;;2.80;52.30;;;;;;5086581;28;34204;-76
2022/01/11 11:52:39;;;;;;;7.60;4.07;;;2.80;52.40;;;;;;5069594;28;36109;-76
2022/01/11 11:55:20;;;;;;;8.30;3.95;;;2.80;52.20;;;;;;5086907;28;34196;-76
2022/01/11 11:57:48;;;;;;;8.35;3.85;;;2.80;51.90;;;;;;5086427;28;34269;-76
2022/01/11 12:00:23;;;;;;;7.13;4.38;;;2.80;52.10;;;;;;5069748;28;34543;-76
2022/01/11 12:02:55;;;;;;;7.38;5.13;;;2.80;52.20;;;;;;5085752;28;35740;-75
2022/01/11 12:05:38;;;;;;;6.53;4.00;;;2.80;52.00;;;;;;5086166;28;34374;-76
2022/01/11 12:08:36;;;;;;;8.30;4.78;;;2.60;51.70;;;;;;5069431;28;34316;-76
2022/01/11 12:11:08;;;;;;;5.97;4.30;;;2.60;52.10;;;;;;5104332;28;34238;-76
2022/01/11 12:13:53;;;;;;;8.05;4.63;;;2.60;52.40;;;;;;5081893;28;35898;-76
2022/01/11 12:16:40;;;;;;;6.32;4.07;;;2.60;52.00;;;;;;5099006;28;34248;-76
2022/01/11 12:19:09;;;;;;;7.93;4.97;;;2.70;52.60;;;;;;5086184;28;34284;-76
2022/01/11 12:22:00;;;;;;;7.70;5.07;;;2.70;52.80;;;;;;5082477;28;34308;-76
2022/01/11 12:24:37;;;;;;;7.35;4.97;;;2.70;52.20;;;;;;5100314;28;35667;-76
2022/01/11 12:27:04;;;;;;;7.93;4.72;;;2.70;52.30;;;;;;5099801;28;34380;-76
2022/01/11 12:29:30;;;;;;;5.93;4.32;;;2.70;52.40;;;;;;5084583;28;35261;-76
2022/01/11 12:32:06;;;;;;;6.78;4.45;;;2.70;52.60;;;;;;5085240;28;34389;-76
2022/01/11 12:34:49;;;;;;;8.75;4.65;;;2.80;52.50;;;;;;5099145;28;35673;-76
2022/01/11 12:37:33;;;;;;;6.55;4.28;;;2.80;52.50;;;;;;5082765;28;34211;-76
2022/01/11 12:40:05;;;;;;;7.32;4.45;;;2.90;52.70;;;;;;5116465;27;34356;-75
2022/01/11 12:42:32;;;;;;;8.73;4.60;;;2.90;52.60;;;;;;5083091;28;34094;-76
2022/01/11 12:47:46;;;;;;;6.38;4.40;;;2.90;52.60;;;;;;5097865;28;34091;-76
2022/01/11 12:50:15;;;;;;;9.00;4.28;;;3.00;52.70;;;;;;5083182;28;34220;-76
2022/01/11 12:52:41;;;;;;;6.85;4.32;;;3.10;53.00;;;;;;5083686;28;34196;-76
2022/01/11 12:55:10;;;;;;;6.97;5.03;;;3.10;52.90;;;;;;5100178;28;35481;-75
2022/01/11 12:57:37;;;;;;;7.20;4.35;;;3.20;52.60;;;;;;5100250;28;34333;-76
2022/01/11 13:00:10;;;;;;;8.50;5.13;;;3.20;52.20;;;;;;5100005;28;34355;-75
2022/01/11 13:02:38;;;;;;;8.95;4.80;;;3.20;52.20;;;;;;5083715;28;34254;-75
2022/01/11 13:05:10;;;;;;;7.97;5.18;;;3.20;52.30;;;;;;5083390;28;35965;-75